sensor_id;sensor_type;location;lat;lon;timestamp;temperature;humidity
47114;DHT22;32867;51.556;6.832;2023-05-10T00:02:56;13.40;99.90
47114;DHT22;32867;51.556;6.832;2023-05-10T00:07:59;13.30;99.90
47114;DHT22;32867;51.556;6.832;2023-05-10T00:13:00;13.30;99.90
47114;DHT22;32867;51.556;6.832;2023-05-10T00:18:01;13.30;99.90
47114;DHT22;32867;51.556;6.832;2023-05-10T00:23:01;13.20;99.90
47114;DHT22;32867;51.556;6.832;2023-05-10T00:28:04;13.20;99.90
47114;DHT22;32867;51.556;6.832;2023-05-10T00:33:06;13.10;99.90
47114;DHT22;32867;51.556;6.832;2023-05-10T00:38:07;13.10;99.90
47114;DHT22;32867;51.556;6.832;2023-05-10T00:43:10;13.00;99.90
47114;DHT22;32867;51.556;6.832;2023-05-10T00:48:12;12.90;99.90
47114;DHT22;32867;51.556;6.832;2023-05-10T00:53:14;12.90;99.90
47114;DHT22;32867;51.556;6.832;2023-05-10T00:58:15;12.80;99.90
47114;DHT22;32867;51.556;6.832;2023-05-10T01:03:16;12.80;99.90
47114;DHT22;32867;51.556;6.832;2023-05-10T01:08:17;12.90;99.90
47114;DHT22;32867;51.556;6.832;2023-05-10T01:13:37;13.00;99.90
47114;DHT22;32867;51.556;6.832;2023-05-10T01:18:41;12.90;99.90
47114;DHT22;32867;51.556;6.832;2023-05-10T01:40:23;12.80;99.90
47114;DHT22;32867;51.556;6.832;2023-05-10T01:45:41;12.80;99.90
47114;DHT22;32867;51.556;6.832;2023-05-10T01:50:46;12.80;99.90
47114;DHT22;32867;51.556;6.832;2023-05-10T01:55:53;12.80;99.90
47114;DHT22;32867;51.556;6.832;2023-05-10T02:00:57;12.80;99.90
47114;DHT22;32867;51.556;6.832;2023-05-10T02:05:59;13.00;99.90
47114;DHT22;32867;51.556;6.832;2023-05-10T02:11:00;12.90;99.90
47114;DHT22;32867;51.556;6.832;2023-05-10T02:16:03;12.90;99.90
47114;DHT22;32867;51.556;6.832;2023-05-10T02:21:05;12.90;99.90
47114;DHT22;32867;51.556;6.832;2023-05-10T02:26:07;12.80;99.90
47114;DHT22;32867;51.556;6.832;2023-05-10T02:31:09;13.00;99.90
47114;DHT22;32867;51.556;6.832;2023-05-10T02:36:12;13.00;99.90
47114;DHT22;32867;51.556;6.832;2023-05-10T02:41:15;13.20;99.90
47114;DHT22;32867;51.556;6.832;2023-05-10T02:46:15;13.70;99.90
47114;DHT22;32867;51.556;6.832;2023-05-10T02:51:18;13.40;99.90
47114;DHT22;32867;51.556;6.832;2023-05-10T02:56:28;13.10;99.90
47114;DHT22;32867;51.556;6.832;2023-05-10T03:01:32;13.10;99.90
47114;DHT22;32867;51.556;6.832;2023-05-10T03:06:34;13.10;99.90
47114;DHT22;32867;51.556;6.832;2023-05-10T03:16:47;13.40;99.90
47114;DHT22;32867;51.556;6.832;2023-05-10T03:21:50;13.20;99.90
47114;DHT22;32867;51.556;6.832;2023-05-10T03:26:55;13.10;99.90
47114;DHT22;32867;51.556;6.832;2023-05-10T03:31:58;13.20;99.90
47114;DHT22;32867;51.556;6.832;2023-05-10T03:37:00;13.00;99.90
47114;DHT22;32867;51.556;6.832;2023-05-10T03:42:05;12.90;99.90
47114;DHT22;32867;51.556;6.832;2023-05-10T03:47:06;12.90;99.90
47114;DHT22;32867;51.556;6.832;2023-05-10T03:52:07;12.80;99.90
47114;DHT22;32867;51.556;6.832;2023-05-10T03:57:09;12.80;99.90
47114;DHT22;32867;51.556;6.832;2023-05-10T04:02:10;13.00;99.90
47114;DHT22;32867;51.556;6.832;2023-05-10T04:07:11;13.10;99.90
47114;DHT22;32867;51.556;6.832;2023-05-10T04:12:12;12.90;99.90
47114;DHT22;32867;51.556;6.832;2023-05-10T04:17:13;12.80;99.90
47114;DHT22;32867;51.556;6.832;2023-05-10T04:22:13;13.00;99.90
47114;DHT22;32867;51.556;6.832;2023-05-10T04:27:16;12.90;99.90
47114;DHT22;32867;51.556;6.832;2023-05-10T04:32:17;12.80;99.90
47114;DHT22;32867;51.556;6.832;2023-05-10T04:37:18;12.90;99.90
47114;DHT22;32867;51.556;6.832;2023-05-10T04:42:26;12.90;99.90
47114;DHT22;32867;51.556;6.832;2023-05-10T04:47:27;12.90;99.90
47114;DHT22;32867;51.556;6.832;2023-05-10T04:52:30;12.90;99.90
47114;DHT22;32867;51.556;6.832;2023-05-10T04:57:30;13.00;99.90
47114;DHT22;32867;51.556;6.832;2023-05-10T05:02:31;13.10;99.90
47114;DHT22;32867;51.556;6.832;2023-05-10T05:07:32;13.00;99.90
47114;DHT22;32867;51.556;6.832;2023-05-10T05:12:33;12.90;99.90
47114;DHT22;32867;51.556;6.832;2023-05-10T05:17:34;13.00;99.90
47114;DHT22;32867;51.556;6.832;2023-05-10T05:22:36;13.00;99.90
47114;DHT22;32867;51.556;6.832;2023-05-10T05:27:37;13.00;99.90
47114;DHT22;32867;51.556;6.832;2023-05-10T05:32:38;13.10;99.90
47114;DHT22;32867;51.556;6.832;2023-05-10T05:37:39;13.10;99.90
47114;DHT22;32867;51.556;6.832;2023-05-10T05:42:41;13.00;99.90
47114;DHT22;32867;51.556;6.832;2023-05-10T05:47:41;13.20;99.90
47114;DHT22;32867;51.556;6.832;2023-05-10T05:52:42;13.20;99.90
47114;DHT22;32867;51.556;6.832;2023-05-10T05:57:44;13.20;99.90
47114;DHT22;32867;51.556;6.832;2023-05-10T06:02:45;13.30;99.90
47114;DHT22;32867;51.556;6.832;2023-05-10T06:07:46;13.30;99.90
47114;DHT22;32867;51.556;6.832;2023-05-10T06:12:47;13.30;99.90
47114;DHT22;32867;51.556;6.832;2023-05-10T06:17:49;13.40;99.90
47114;DHT22;32867;51.556;6.832;2023-05-10T06:22:50;13.30;99.90
47114;DHT22;32867;51.556;6.832;2023-05-10T06:27:50;13.60;99.90
47114;DHT22;32867;51.556;6.832;2023-05-10T06:32:57;13.90;99.90
47114;DHT22;32867;51.556;6.832;2023-05-10T06:37:57;13.60;99.90
47114;DHT22;32867;51.556;6.832;2023-05-10T06:42:58;13.70;99.90
47114;DHT22;32867;51.556;6.832;2023-05-10T06:47:59;13.60;99.90
47114;DHT22;32867;51.556;6.832;2023-05-10T06:53:00;13.40;99.90
47114;DHT22;32867;51.556;6.832;2023-05-10T06:58:02;13.70;99.90
47114;DHT22;32867;51.556;6.832;2023-05-10T07:03:02;13.70;99.90
47114;DHT22;32867;51.556;6.832;2023-05-10T07:08:04;13.90;99.90
47114;DHT22;32867;51.556;6.832;2023-05-10T07:13:04;13.70;99.90
47114;DHT22;32867;51.556;6.832;2023-05-10T07:18:05;13.50;99.90
47114;DHT22;32867;51.556;6.832;2023-05-10T07:23:06;13.60;99.90
47114;DHT22;32867;51.556;6.832;2023-05-10T07:28:08;13.90;99.90
47114;DHT22;32867;51.556;6.832;2023-05-10T07:33:10;14.10;99.90
47114;DHT22;32867;51.556;6.832;2023-05-10T07:38:12;13.80;99.90
47114;DHT22;32867;51.556;6.832;2023-05-10T07:43:12;13.90;99.90
47114;DHT22;32867;51.556;6.832;2023-05-10T07:48:13;13.70;99.90
47114;DHT22;32867;51.556;6.832;2023-05-10T07:53:14;14.20;99.90
47114;DHT22;32867;51.556;6.832;2023-05-10T07:58:15;14.00;99.90
47114;DHT22;32867;51.556;6.832;2023-05-10T08:03:16;13.80;99.90
47114;DHT22;32867;51.556;6.832;2023-05-10T08:08:17;13.80;99.90
47114;DHT22;32867;51.556;6.832;2023-05-10T08:13:17;13.90;99.90
47114;DHT22;32867;51.556;6.832;2023-05-10T08:18:19;14.20;99.90
47114;DHT22;32867;51.556;6.832;2023-05-10T08:23:19;14.00;99.90
47114;DHT22;32867;51.556;6.832;2023-05-10T08:28:21;14.10;99.90
47114;DHT22;32867;51.556;6.832;2023-05-10T08:33:21;14.70;99.90
47114;DHT22;32867;51.556;6.832;2023-05-10T08:38:23;14.80;99.90
47114;DHT22;32867;51.556;6.832;2023-05-10T08:43:29;15.30;99.90
47114;DHT22;32867;51.556;6.832;2023-05-10T08:48:30;16.00;99.90
47114;DHT22;32867;51.556;6.832;2023-05-10T08:53:33;15.80;99.90
47114;DHT22;32867;51.556;6.832;2023-05-10T08:58:36;15.60;99.90
47114;DHT22;32867;51.556;6.832;2023-05-10T09:03:38;15.90;99.90
47114;DHT22;32867;51.556;6.832;2023-05-10T09:08:41;15.50;99.90
47114;DHT22;32867;51.556;6.832;2023-05-10T09:13:45;15.50;99.90
47114;DHT22;32867;51.556;6.832;2023-05-10T09:18:48;15.10;99.90
47114;DHT22;32867;51.556;6.832;2023-05-10T09:23:50;15.10;99.90
47114;DHT22;32867;51.556;6.832;2023-05-10T09:28:56;15.00;99.90
47114;DHT22;32867;51.556;6.832;2023-05-10T09:33:57;15.10;99.90
47114;DHT22;32867;51.556;6.832;2023-05-10T09:38:59;15.30;99.90
47114;DHT22;32867;51.556;6.832;2023-05-10T09:44:01;15.30;99.90
47114;DHT22;32867;51.556;6.832;2023-05-10T09:49:02;15.10;99.90
47114;DHT22;32867;51.556;6.832;2023-05-10T09:54:16;15.20;99.90
47114;DHT22;32867;51.556;6.832;2023-05-10T09:59:18;15.10;99.90
47114;DHT22;32867;51.556;6.832;2023-05-10T10:04:20;14.80;99.90
47114;DHT22;32867;51.556;6.832;2023-05-10T10:09:22;14.90;99.90
47114;DHT22;32867;51.556;6.832;2023-05-10T10:14:24;14.60;99.90
47114;DHT22;32867;51.556;6.832;2023-05-10T10:19:26;14.50;99.90
47114;DHT22;32867;51.556;6.832;2023-05-10T10:24:27;14.40;99.90
47114;DHT22;32867;51.556;6.832;2023-05-10T10:34:42;14.10;99.90
47114;DHT22;32867;51.556;6.832;2023-05-10T10:39:44;14.10;99.90
47114;DHT22;32867;51.556;6.832;2023-05-10T10:44:45;14.40;99.90
47114;DHT22;32867;51.556;6.832;2023-05-10T10:49:51;14.80;99.90
47114;DHT22;32867;51.556;6.832;2023-05-10T10:54:59;14.70;99.90
47114;DHT22;32867;51.556;6.832;2023-05-10T11:05:42;14.30;99.90
47114;DHT22;32867;51.556;6.832;2023-05-10T11:11:09;14.20;99.90
47114;DHT22;32867;51.556;6.832;2023-05-10T11:21:23;14.50;99.90
47114;DHT22;32867;51.556;6.832;2023-05-10T11:26:25;14.20;99.90
47114;DHT22;32867;51.556;6.832;2023-05-10T11:31:26;14.10;99.90
47114;DHT22;32867;51.556;6.832;2023-05-10T11:36:31;14.20;99.90
47114;DHT22;32867;51.556;6.832;2023-05-10T11:41:34;14.70;99.90
47114;DHT22;32867;51.556;6.832;2023-05-10T11:46:36;15.00;99.90
47114;DHT22;32867;51.556;6.832;2023-05-10T11:51:37;14.80;99.90
47114;DHT22;32867;51.556;6.832;2023-05-10T11:56:40;15.00;99.90
47114;DHT22;32867;51.556;6.832;2023-05-10T12:01:42;14.90;99.90
47114;DHT22;32867;51.556;6.832;2023-05-10T12:06:42;15.00;99.90
47114;DHT22;32867;51.556;6.832;2023-05-10T12:11:46;14.90;99.90
47114;DHT22;32867;51.556;6.832;2023-05-10T12:16:47;15.00;99.90
47114;DHT22;32867;51.556;6.832;2023-05-10T12:21:48;15.30;99.90
47114;DHT22;32867;51.556;6.832;2023-05-10T12:26:50;15.50;99.90
47114;DHT22;32867;51.556;6.832;2023-05-10T12:31:55;15.70;99.90
47114;DHT22;32867;51.556;6.832;2023-05-10T12:36:59;15.40;99.90
47114;DHT22;32867;51.556;6.832;2023-05-10T12:42:03;15.50;99.90
47114;DHT22;32867;51.556;6.832;2023-05-10T12:47:03;16.10;99.90
47114;DHT22;32867;51.556;6.832;2023-05-10T12:52:04;15.80;99.90
47114;DHT22;32867;51.556;6.832;2023-05-10T12:57:05;16.20;99.90
47114;DHT22;32867;51.556;6.832;2023-05-10T13:02:07;16.50;99.90
47114;DHT22;32867;51.556;6.832;2023-05-10T13:07:09;17.10;99.90
47114;DHT22;32867;51.556;6.832;2023-05-10T13:12:10;17.50;99.90
47114;DHT22;32867;51.556;6.832;2023-05-10T13:17:10;17.70;99.90
47114;DHT22;32867;51.556;6.832;2023-05-10T13:22:11;17.90;99.90
47114;DHT22;32867;51.556;6.832;2023-05-10T13:27:12;17.50;99.90
47114;DHT22;32867;51.556;6.832;2023-05-10T13:32:12;18.00;99.90
47114;DHT22;32867;51.556;6.832;2023-05-10T13:37:13;18.00;99.90
47114;DHT22;32867;51.556;6.832;2023-05-10T13:42:14;18.30;99.90
47114;DHT22;32867;51.556;6.832;2023-05-10T13:47:14;18.00;99.90
47114;DHT22;32867;51.556;6.832;2023-05-10T13:52:15;17.90;99.90
47114;DHT22;32867;51.556;6.832;2023-05-10T13:57:16;17.70;99.90
47114;DHT22;32867;51.556;6.832;2023-05-10T14:02:17;18.20;99.90
47114;DHT22;32867;51.556;6.832;2023-05-10T14:07:17;18.30;99.90
47114;DHT22;32867;51.556;6.832;2023-05-10T14:12:18;19.00;99.90
47114;DHT22;32867;51.556;6.832;2023-05-10T14:17:19;19.60;99.90
47114;DHT22;32867;51.556;6.832;2023-05-10T14:22:20;19.10;99.90
47114;DHT22;32867;51.556;6.832;2023-05-10T14:27:20;19.20;99.90
47114;DHT22;32867;51.556;6.832;2023-05-10T14:32:21;19.50;99.90
47114;DHT22;32867;51.556;6.832;2023-05-10T14:37:22;18.50;99.90
47114;DHT22;32867;51.556;6.832;2023-05-10T14:42:23;18.60;99.90
47114;DHT22;32867;51.556;6.832;2023-05-10T14:47:24;19.20;99.90
47114;DHT22;32867;51.556;6.832;2023-05-10T14:52:25;19.10;99.90
47114;DHT22;32867;51.556;6.832;2023-05-10T14:57:28;18.70;99.90
47114;DHT22;32867;51.556;6.832;2023-05-10T15:02:31;17.90;99.90
47114;DHT22;32867;51.556;6.832;2023-05-10T15:07:32;17.80;99.90
47114;DHT22;32867;51.556;6.832;2023-05-10T15:12:32;17.70;99.90
47114;DHT22;32867;51.556;6.832;2023-05-10T15:17:33;17.70;99.90
47114;DHT22;32867;51.556;6.832;2023-05-10T15:22:34;17.50;99.90
47114;DHT22;32867;51.556;6.832;2023-05-10T15:27:35;17.20;99.90
47114;DHT22;32867;51.556;6.832;2023-05-10T15:32:35;17.00;99.90
47114;DHT22;32867;51.556;6.832;2023-05-10T15:37:37;16.80;99.90
47114;DHT22;32867;51.556;6.832;2023-05-10T15:42:37;17.40;99.90
47114;DHT22;32867;51.556;6.832;2023-05-10T15:47:38;17.20;99.90
47114;DHT22;32867;51.556;6.832;2023-05-10T15:52:42;17.20;99.90
47114;DHT22;32867;51.556;6.832;2023-05-10T15:57:43;16.90;99.90
47114;DHT22;32867;51.556;6.832;2023-05-10T16:02:44;16.30;99.90
47114;DHT22;32867;51.556;6.832;2023-05-10T16:07:44;16.10;99.90
47114;DHT22;32867;51.556;6.832;2023-05-10T16:12:46;15.90;99.90
47114;DHT22;32867;51.556;6.832;2023-05-10T16:17:46;15.50;99.90
47114;DHT22;32867;51.556;6.832;2023-05-10T16:22:48;15.30;99.90
47114;DHT22;32867;51.556;6.832;2023-05-10T16:27:48;15.40;99.90
47114;DHT22;32867;51.556;6.832;2023-05-10T16:32:50;15.20;99.90
47114;DHT22;32867;51.556;6.832;2023-05-10T16:37:51;15.10;99.90
47114;DHT22;32867;51.556;6.832;2023-05-10T16:42:52;15.00;99.90
47114;DHT22;32867;51.556;6.832;2023-05-10T16:47:53;14.90;99.90
47114;DHT22;32867;51.556;6.832;2023-05-10T16:52:54;14.60;99.90
47114;DHT22;32867;51.556;6.832;2023-05-10T16:57:54;14.70;99.90
47114;DHT22;32867;51.556;6.832;2023-05-10T17:03:00;14.40;99.90
47114;DHT22;32867;51.556;6.832;2023-05-10T17:08:02;14.50;99.90
47114;DHT22;32867;51.556;6.832;2023-05-10T17:13:02;14.50;99.90
47114;DHT22;32867;51.556;6.832;2023-05-10T17:18:04;14.80;99.90
47114;DHT22;32867;51.556;6.832;2023-05-10T17:23:04;14.70;99.90
47114;DHT22;32867;51.556;6.832;2023-05-10T17:28:05;15.00;99.90
47114;DHT22;32867;51.556;6.832;2023-05-10T17:33:06;14.70;99.90
47114;DHT22;32867;51.556;6.832;2023-05-10T17:38:07;14.60;99.90
47114;DHT22;32867;51.556;6.832;2023-05-10T17:43:07;14.60;99.90
47114;DHT22;32867;51.556;6.832;2023-05-10T17:48:08;14.70;99.90
47114;DHT22;32867;51.556;6.832;2023-05-10T17:53:10;14.80;99.90
47114;DHT22;32867;51.556;6.832;2023-05-10T17:58:11;15.40;99.90
47114;DHT22;32867;51.556;6.832;2023-05-10T18:03:12;15.70;99.90
47114;DHT22;32867;51.556;6.832;2023-05-10T18:08:13;15.40;99.90
47114;DHT22;32867;51.556;6.832;2023-05-10T18:13:16;15.30;99.90
47114;DHT22;32867;51.556;6.832;2023-05-10T18:18:17;15.80;99.90
47114;DHT22;32867;51.556;6.832;2023-05-10T18:23:17;15.70;99.90
47114;DHT22;32867;51.556;6.832;2023-05-10T18:28:19;16.00;99.90
47114;DHT22;32867;51.556;6.832;2023-05-10T18:33:19;15.40;99.90
47114;DHT22;32867;51.556;6.832;2023-05-10T18:38:20;14.80;99.90
47114;DHT22;32867;51.556;6.832;2023-05-10T18:43:22;14.80;99.90
47114;DHT22;32867;51.556;6.832;2023-05-10T18:48:23;15.00;99.90
47114;DHT22;32867;51.556;6.832;2023-05-10T18:53:24;15.00;99.90
47114;DHT22;32867;51.556;6.832;2023-05-10T18:58:26;15.20;99.90
47114;DHT22;32867;51.556;6.832;2023-05-10T19:03:28;15.50;99.90
47114;DHT22;32867;51.556;6.832;2023-05-10T19:08:32;15.50;99.90
47114;DHT22;32867;51.556;6.832;2023-05-10T19:13:33;15.10;99.90
47114;DHT22;32867;51.556;6.832;2023-05-10T19:18:33;15.00;99.90
47114;DHT22;32867;51.556;6.832;2023-05-10T19:23:36;14.70;99.90
47114;DHT22;32867;51.556;6.832;2023-05-10T19:28:41;14.50;99.90
47114;DHT22;32867;51.556;6.832;2023-05-10T19:33:42;14.50;99.90
47114;DHT22;32867;51.556;6.832;2023-05-10T19:38:43;14.20;99.90
47114;DHT22;32867;51.556;6.832;2023-05-10T19:43:44;14.30;99.90
47114;DHT22;32867;51.556;6.832;2023-05-10T19:48:45;14.40;99.90
47114;DHT22;32867;51.556;6.832;2023-05-10T19:53:46;14.70;99.90
47114;DHT22;32867;51.556;6.832;2023-05-10T19:58:46;14.80;99.90
47114;DHT22;32867;51.556;6.832;2023-05-10T20:03:47;15.00;99.90
47114;DHT22;32867;51.556;6.832;2023-05-10T20:08:49;14.60;99.90
47114;DHT22;32867;51.556;6.832;2023-05-10T20:13:50;14.70;99.90
47114;DHT22;32867;51.556;6.832;2023-05-10T20:18:56;14.80;99.90
47114;DHT22;32867;51.556;6.832;2023-05-10T20:24:02;15.20;99.90
47114;DHT22;32867;51.556;6.832;2023-05-10T20:29:31;15.10;99.90
47114;DHT22;32867;51.556;6.832;2023-05-10T20:35:34;14.90;99.90
47114;DHT22;32867;51.556;6.832;2023-05-10T20:40:54;15.00;99.90
47114;DHT22;32867;51.556;6.832;2023-05-10T20:46:06;14.80;99.90
47114;DHT22;32867;51.556;6.832;2023-05-10T20:51:10;14.80;99.90
47114;DHT22;32867;51.556;6.832;2023-05-10T20:56:38;15.10;99.90
47114;DHT22;32867;51.556;6.832;2023-05-10T21:01:56;15.20;99.90
47114;DHT22;32867;51.556;6.832;2023-05-10T21:07:26;15.10;99.90
47114;DHT22;32867;51.556;6.832;2023-05-10T21:12:37;15.10;99.90
47114;DHT22;32867;51.556;6.832;2023-05-10T21:17:43;15.20;99.90
47114;DHT22;32867;51.556;6.832;2023-05-10T21:22:53;15.00;99.90
47114;DHT22;32867;51.556;6.832;2023-05-10T21:27:57;14.80;99.90
47114;DHT22;32867;51.556;6.832;2023-05-10T21:33:11;15.00;99.90
47114;DHT22;32867;51.556;6.832;2023-05-10T21:38:55;15.10;99.90
47114;DHT22;32867;51.556;6.832;2023-05-10T21:44:34;15.10;99.90
47114;DHT22;32867;51.556;6.832;2023-05-10T21:50:31;15.20;99.90
47114;DHT22;32867;51.556;6.832;2023-05-10T22:01:11;15.10;99.90
47114;DHT22;32867;51.556;6.832;2023-05-10T22:06:13;15.10;99.90
47114;DHT22;32867;51.556;6.832;2023-05-10T22:11:14;15.00;99.90
47114;DHT22;32867;51.556;6.832;2023-05-10T22:16:15;15.10;99.90
47114;DHT22;32867;51.556;6.832;2023-05-10T22:21:16;15.10;99.90
47114;DHT22;32867;51.556;6.832;2023-05-10T22:26:17;15.10;99.90
47114;DHT22;32867;51.556;6.832;2023-05-10T22:31:17;14.90;99.90
47114;DHT22;32867;51.556;6.832;2023-05-10T22:36:18;14.70;99.90
47114;DHT22;32867;51.556;6.832;2023-05-10T22:41:20;14.30;99.90
47114;DHT22;32867;51.556;6.832;2023-05-10T22:46:21;14.20;99.90
47114;DHT22;32867;51.556;6.832;2023-05-10T22:51:22;14.10;99.90
47114;DHT22;32867;51.556;6.832;2023-05-10T22:56:22;14.40;99.90
47114;DHT22;32867;51.556;6.832;2023-05-10T23:01:24;14.10;99.90
47114;DHT22;32867;51.556;6.832;2023-05-10T23:06:26;13.70;99.90
47114;DHT22;32867;51.556;6.832;2023-05-10T23:11:27;13.50;99.90
47114;DHT22;32867;51.556;6.832;2023-05-10T23:16:28;13.40;99.90
47114;DHT22;32867;51.556;6.832;2023-05-10T23:21:30;13.60;99.90
47114;DHT22;32867;51.556;6.832;2023-05-10T23:26:31;13.80;99.90
47114;DHT22;32867;51.556;6.832;2023-05-10T23:31:32;13.90;99.90
47114;DHT22;32867;51.556;6.832;2023-05-10T23:36:33;13.90;99.90
47114;DHT22;32867;51.556;6.832;2023-05-10T23:41:34;13.80;99.90
47114;DHT22;32867;51.556;6.832;2023-05-10T23:46:35;14.00;99.90
47114;DHT22;32867;51.556;6.832;2023-05-10T23:51:37;13.80;99.90
47114;DHT22;32867;51.556;6.832;2023-05-10T23:56:38;13.30;99.90
